Tiempo atmosférico en la estación meteorológica de Cañaveral, Cáceres (373 m.)



Fecha
DESCASC
Temp. máxima en grados centígrados (hora)
DESCASC
Temp. mínima en grados centígrados (hora)
DESCASC
Temp. media en grados centígrados
DESCASC
Racha de viento máxima en m/sg (hora)
DESCASC
Velocidad máxima media en intervalos de 10 minutos(hora)
DESCASC
Precipitaciones diarias en mm
DESCASC
Precipitaciones de 00:00 a 06:00 en mm
DESCASC
Precipitaciones de 06:00 a 12:00 en mm
DESCASC
Precipitaciones de 12:00 a 18:00 en mm
DESCASC
Precipitaciones de 18:00 a 24:00 en mm
DESCASC
16-04-2019 22.1 (18:10) 7.1 (07:20) 14.6 10.28 (18:30) 5.83 (17:20) 0 0 0 0 0
15-04-2019 20.8 (14:40) 12.7 (16:30) 16.7 16.94 (14:50) 11.39 (15:30) 0.6 0 0 0.6 0
14-04-2019 24.7 (18:10) 12.1 (00:00) 18.4 9.17 (03:40) 6.39 (03:50) 0 0 0 0 0
13-04-2019 23.6 (16:40) 9.1 (00:00) 16.4 11.67 (18:40) 8.33 (18:50) 0 0 0 0 0
12-04-2019 21 (18:20) 7.1 (00:00) 14 8.61 (00:20) 5.83 (00:40) 0 0 0 0 0
11-04-2019 19.6 (17:30) 8.3 (00:00) 14 11.39 (07:20) 8.33 (07:30) 0 0 0 0 0
10-04-2019 17.8 (17:20) 7 (00:00) 12.4 14.72 (15:50) 9.44 (21:00) 0 0 0 0 0
09-04-2019 16.8 (17:50) 7 (00:00) 11.9 14.17 (16:00) 10 (19:10) 3.8 0 3.6 0.2 0
08-04-2019 17.7 (16:10) 8.4 (00:00) 13.1 12.78 (17:10) 8.61 (17:10) 5.4 5.4 0 0 0
07-04-2019 13.2 (15:30) 7.2 (00:00) 10.2 8.06 (14:20) 5.28 (14:20) 3 0 0 1.4 1.6
06-04-2019 11.6 (18:40) 4.4 (00:00) 8 15.28 (17:40) 9.72 (15:20) 1.2 0 1 0.2 0
05-04-2019 12.6 (16:00) 5.2 (00:00) 8.9 16.39 (18:00) 10.83 (16:40) 9.6 8.2 1 0.4 0
04-04-2019 16.6 (16:40) 3.4 (00:00) 10 15 (20:50) 10.28 (08:30) 0.8 0 0 0 0.8
03-04-2019 16.4 (16:00) 6.4 (00:00) 11.4 12.78 (17:00) 8.33 (10:20) 0 0 0 0 0
02-04-2019 22.3 (17:50) 7.3 (00:00) 14.8 9.44 (23:40) 6.94 (23:40) 0 0 0 0 0
01-04-2019 16.9 (17:40) 10.1 (00:00) 13.5 8.33 (00:20) 5.28 (04:10) 0 0 0 0 0
31-03-2019 20.3 (17:00) 11.6 (00:00) 15.9 12.5 (10:30) 8.33 (10:10) 0 0 0 0 0
30-03-2019 20 (15:20) 8.4 (00:00) 14.2 12.78 (09:40) 8.89 (10:30) 0 0 0 0 0
29-03-2019 19.7 (15:50) 8.3 (00:00) 14 12.5 (10:10) 8.33 (10:10) 0 0 0 0 0
28-03-2019 21.2 (16:00) 7.9 (00:00) 14.6 10.83 (09:50) 6.94 (09:50) 0 0 0 0 0
27-03-2019 19.6 (16:00) 9 (00:00) 14.3 16.67 (07:50) 10.56 (04:50) 0 0 0 0 0
26-03-2019 22 (16:40) 9.5 (00:00) 15.8 16.11 (13:30) 10.28 (12:10) 0 0 0 0 0
25-03-2019 22.8 (14:50) 9.2 (00:00) 16 13.06 (23:00) 9.72 (23:00) 0 0 0 0 0
24-03-2019 21.7 (16:40) 11.3 (00:00) 16.5 15.56 (12:50) 10.56 (12:50) 0 0 0 0 0
23-03-2019 20.9 (15:50) 10.3 (00:00) 15.6 13.33 (14:50) 9.17 (14:30) 0 0 0 0 0
22-03-2019 18.5 (16:50) 6.3 (00:00) 12.4 12.22 (09:50) 8.61 (09:50) 0 0 0 0 0
21-03-2019 17.8 (17:00) 6.7 (00:00) 12.2 13.89 (10:20) 8.89 (10:20) 0 0 0 0 0
20-03-2019 16 (16:10) 7.3 (00:00) 11.7 11.11 (09:40) 7.22 (10:10) 0 0 0 0 0
19-03-2019 18.4 (16:40) 8.5 (00:00) 13.4 11.11 (18:30) 7.5 (00:50) 0 0 0 0 0

Gráficas

Temp. máximas Temp. mínimas Temp. medias Precipitaciones Rachas de viento máximas Velocidades máximas media en intervalos de 10 minutos

Datos horarios

Fecha y hora oficial Temperatura (ºC) Velocidad del viento (km/h) Dirección del viento Racha (km/h) Dirección de racha Precipitación (mm) Presión (hPa) Tendencia (hPa) Humedad (%)
2019-04-17 23:00:00 10.8 12 Sur 25 Sudoeste 7.6 -- -- 94
2019-04-17 22:00:00 11.3 8 Sudeste 16 Sudeste 1 -- -- 92
2019-04-17 21:00:00 11.4 4 Sur 14 Este 0.8 -- -- 91
2019-04-17 20:00:00 11.4 9 Sudeste 14 Sudeste 1.4 -- -- 91
2019-04-17 19:00:00 11.5 8 Sur 35 Sudoeste 1.8 -- -- 91
2019-04-17 18:00:00 13.4 20 Oeste 50 Sudoeste 0.2 -- -- 81
2019-04-17 17:00:00 18.8 24 Sur 40 Sur 0 -- -- 49
2019-04-17 16:00:00 19.4 26 Sudeste 49 Sudeste 0 -- -- 46
2019-04-17 15:00:00 20 24 Sur 47 Sudeste 0 -- -- 46
2019-04-17 14:00:00 18.6 27 Sur 44 Sudeste 0 -- -- 48
2019-04-17 13:00:00 18.3 21 Sudeste 36 Sudeste 0 -- -- 48
2019-04-17 12:00:00 16.5 15 Sudeste 28 Sudeste 0 -- -- 53
2019-04-17 11:00:00 14.5 8 Sudeste 13 Sudeste 0 -- -- 62
2019-04-17 10:00:00 13.1 2 Nordeste 10 Nordeste 0 -- -- 68
2019-04-17 09:00:00 11.4 6 Nordeste 9 Este 0 -- -- 70
2019-04-17 08:00:00 10.9 5 Este 9 Este 0 -- -- 68
2019-04-17 07:00:00 10.9 5 Este 8 Sur 0 -- -- 66
2019-04-17 06:00:00 11.3 2 Sur 15 Nordeste 0 -- -- 63
2019-04-17 05:00:00 12.2 11 Nordeste 14 Este 0 -- -- 60
2019-04-17 04:00:00 12.9 6 Este 9 Este 0 -- -- 56
2019-04-17 03:00:00 14 3 Sur 12 Sur 0 -- -- 52
2019-04-17 02:00:00 14.4 4 Nordeste 10 Nordeste 0 -- -- 53
2019-04-17 01:00:00 15.1 4 Este 12 Sur 0 -- -- 52
2019-04-17 00:00:00 16 5 Sudeste 19 Este 0 -- -- 49
2019-04-16 23:00:00 16.5 13 Este 20 Nordeste 0 -- -- 48
2019-04-16 22:00:00 17.5 14 Nordeste 22 Nordeste 0 -- -- 47
2019-04-16 21:00:00 19 11 Este 25 Sudeste 0 -- -- 39
2019-04-16 20:00:00 21.1 15 Sudeste 28 Sudeste -- -- -- 33
2019-04-16 19:00:00 21.7 18 Sudeste 37 Este 0 -- -- 35
2019-04-16 18:00:00 21.9 16 Sudeste 35 Sudeste 0 -- -- 35
2019-04-16 17:00:00 21.8 17 Sudeste 35 Sudeste 0 -- -- 33
2019-04-16 16:00:00 21.2 18 Sudeste 33 Sudeste 0 -- -- 36
2019-04-16 15:00:00 20.8 13 Sudeste 29 Sudeste 0 -- -- 40
2019-04-16 14:00:00 19.1 17 Sudeste 30 Sudeste 0 -- -- 46
2019-04-16 13:00:00 17.7 14 Sudeste 24 Sudeste 0 -- -- 49
2019-04-16 12:00:00 16.2 8 Sur 16 Sudeste 0 -- -- 60
2019-04-16 11:00:00 14.6 6 Este 13 Sudeste 0 -- -- 68
2019-04-16 10:00:00 12.4 5 Este 16 Nordeste 0 -- -- 77
2019-04-16 09:00:00 8.3 8 Nordeste 14 Nordeste 0 -- -- 89
2019-04-16 08:00:00 7.6 9 Este 13 Este 0 -- -- 87
2019-04-16 07:00:00 7.6 9 Nordeste 17 Este 0 -- -- 88
2019-04-16 06:00:00 7.8 0 Calma 6 Sur 0 -- -- 88
2019-04-16 05:00:00 8.5 0 Calma 6 Este 0 -- -- 84
2019-04-16 04:00:00 8.8 0 Calma 12 Sudeste 0 -- -- 84
2019-04-16 03:00:00 9.5 5 Norte 11 Norte 0 -- -- 77
2019-04-16 02:00:00 10.4 4 Sur 11 Sudoeste 0 -- -- 74
2019-04-16 01:00:00 11.2 9 Oeste 28 Noroeste 0 -- -- 70
2019-04-16 00:00:00 13.5 22 Noroeste 36 Noroeste 0 -- -- 61
2019-04-15 23:00:00 14.5 25 Noroeste 37 Noroeste 0 -- -- 59
2019-04-15 22:00:00 14.3 12 Oeste 25 Oeste 0 -- -- 60
2019-04-15 21:00:00 16 14 Oeste 34 Oeste 0 -- -- 57
2019-04-15 20:00:00 18.5 19 Oeste 37 Oeste -- -- -- 49
2019-04-15 19:00:00 17.7 18 Oeste 27 Oeste 0 -- -- 58
2019-04-15 18:00:00 17 10 Sudoeste 27 Sudoeste 0 -- -- 71
2019-04-15 17:00:00 14.1 15 Oeste 37 Oeste 0.6 -- -- 89
2019-04-15 16:00:00 14.3 29 Oeste 57 Oeste 0 -- -- 69
2019-04-15 15:00:00 18.8 36 Oeste 61 Oeste 0 -- -- 54
2019-04-15 14:00:00 20.4 22 Sudoeste 39 Sudoeste 0 -- -- 40
2019-04-15 13:00:00 19.9 18 Sudoeste 33 Oeste 0 -- -- 55
2019-04-15 12:00:00 19 21 Oeste 34 Oeste 0 -- -- 56
2019-04-15 11:00:00 17.7 11 Sudoeste 19 Sudoeste 0 -- -- 69
2019-04-15 10:00:00 15.7 5 Sudoeste 12 Sudoeste 0 -- -- 77
2019-04-15 09:00:00 15.5 4 Este 8 Este 0 -- -- 76
2019-04-15 08:00:00 15.6 6 Nordeste 17 Nordeste 0 -- -- 75
2019-04-15 07:00:00 15.5 9 Nordeste 15 Nordeste 0 -- -- 76
2019-04-15 06:00:00 15.7 11 Nordeste 16 Nordeste 0 -- -- 75
2019-04-15 05:00:00 15.9 9 Nordeste 14 Este 0 -- -- 75
2019-04-15 04:00:00 16.6 5 Norte 9 Nordeste 0 -- -- 73
2019-04-15 03:00:00 16.3 6 Este 8 Nordeste 0 -- -- 76
2019-04-15 02:00:00 17.2 2 Norte 5 Nordeste 0 -- -- 71
2019-04-15 01:00:00 17.1 5 Nordeste 8 Nordeste 0 -- -- 71
2019-04-15 00:00:00 16.4 3 Este 4 Este 0 -- -- 74
2019-04-14 23:00:00 18.1 3 Noroeste 6 Nordeste 0 -- -- 67
2019-04-14 22:00:00 19.2 2 Este 7 Oeste 0 -- -- 64
2019-04-14 21:00:00 20.7 5 Sudoeste 9 Sudoeste 0 -- -- 58
2019-04-14 20:00:00 22.1 6 Sudoeste 16 Sudoeste 0 -- -- 54
2019-04-14 19:00:00 22.7 11 Sudoeste 21 Sudoeste 0 -- -- 51
2019-04-14 18:00:00 24.6 11 Sudoeste 24 Sudoeste 0 -- -- 48
2019-04-14 17:00:00 22.3 8 Sudoeste 18 Sudoeste 0 -- -- 55
2019-04-14 16:00:00 21.9 10 Oeste 25 Sur 0 -- -- 56
2019-04-14 15:00:00 22.5 12 Sudoeste 27 Sudoeste 0 -- -- 54
2019-04-14 14:00:00 21.7 10 Sudoeste 22 Oeste 0 -- -- 56
2019-04-14 13:00:00 20.2 6 Sur 17 Sudoeste 0 -- -- 64
2019-04-14 12:00:00 17.6 5 Sudoeste 17 Oeste 0 -- -- 75
2019-04-14 11:00:00 16.6 8 Sudoeste 16 Oeste 0 -- -- 78
2019-04-14 10:00:00 14 12 Sudoeste 17 Sudoeste 0 -- -- 92
2019-04-14 09:00:00 12.7 10 Oeste 17 Oeste 0 -- -- 95
2019-04-14 08:00:00 12.2 0 Calma 8 Sudoeste 0 -- -- 93
2019-04-14 07:00:00 12.5 2 Sudeste 12 Sudoeste 0 -- -- 93
2019-04-14 06:00:00 13 9 Oeste 29 Oeste 0 -- -- 93
2019-04-14 05:00:00 13.3 22 Sudoeste 30 Sudoeste 0 -- -- 93
2019-04-14 04:00:00 13.4 18 Oeste 33 Oeste 0 -- -- 91
2019-04-14 03:00:00 13.7 15 Sudoeste 25 Sudoeste 0 -- -- 90
2019-04-14 02:00:00 13.9 10 Sudoeste 25 Oeste 0 -- -- 87
2019-04-14 01:00:00 14.7 20 Oeste 28 Oeste 0 -- -- 82
2019-04-14 00:00:00 15.6 14 Oeste 26 Oeste 0 -- -- 75
2019-04-13 23:00:00 16.1 10 Oeste 17 Oeste 0 -- -- 68
2019-04-13 22:00:00 17.3 11 Oeste 24 Oeste 0 -- -- 61
2019-04-13 21:00:00 18.7 18 Oeste 26 Oeste 0 -- -- 51
2019-04-13 20:00:00 19.7 19 Oeste 35 Oeste 0 -- -- 37
2019-04-13 19:00:00 20.1 24 Oeste 42 Oeste 0 -- -- 36
2019-04-13 18:00:00 23 15 Oeste 28 Oeste 0 -- -- 30
2019-04-13 17:00:00 23.4 15 Sudoeste 26 Sudoeste 0 -- -- 34
2019-04-13 16:00:00 22.8 13 Sudoeste 25 Oeste 0 -- -- 33
2019-04-13 15:00:00 22.3 17 Sudoeste 26 Sudoeste 0 -- -- 32
2019-04-13 14:00:00 21.2 9 Sudoeste 19 Sudoeste 0 -- -- 35
2019-04-13 13:00:00 20.1 8 Sudeste 14 Sur 0 -- -- 39
2019-04-13 12:00:00 18.2 5 Sudoeste 12 Sur 0 -- -- 50
2019-04-13 11:00:00 15.9 5 Sudeste 9 Sudeste 0 -- -- 61
2019-04-13 10:00:00 12.8 3 Sur 6 Oeste 0 -- -- 71
2019-04-13 09:00:00 9.9 0 Calma 5 Oeste 0 -- -- 80
2019-04-13 08:00:00 9.2 4 Oeste 6 Oeste 0 -- -- 79
2019-04-13 07:00:00 9.8 0 Calma 8 Oeste 0 -- -- 77
2019-04-13 06:00:00 12.3 3 Nordeste 9 Oeste 0 -- -- 55
2019-04-13 05:00:00 10.3 3 Noroeste 9 Sur 0 -- -- 67
2019-04-13 04:00:00 11.1 4 Sudoeste 7 Sudoeste 0 -- -- 65
2019-04-13 03:00:00 12.3 0 Calma 10 Norte 0 -- -- 55
2019-04-13 02:00:00 12.4 6 Nordeste 15 Norte 0 -- -- 54
2019-04-13 01:00:00 13.3 9 Norte 15 Norte 0 -- -- 49
2019-04-13 00:00:00 14.2 12 Norte 16 Norte 0 -- -- 47
2019-04-12 23:00:00 15.3 11 Noroeste 15 Oeste 0 -- -- 45
2019-04-12 22:00:00 16.3 10 Oeste 17 Oeste 0 -- -- 41
2019-04-12 21:00:00 17.6 11 Oeste 18 Oeste 0 -- -- 39
2019-04-12 20:00:00 20.5 13 Oeste 21 Oeste 0 -- -- 33
2019-04-12 19:00:00 20.6 9 Norte 24 Noroeste 0 -- -- 32
2019-04-12 18:00:00 20.4 3 Norte 21 Norte 0 -- -- 32
2019-04-12 17:00:00 20 10 Nordeste 21 Nordeste 0 -- -- 33
2019-04-12 16:00:00 19.7 6 Noroeste 22 Nordeste 0 -- -- 33
2019-04-12 15:00:00 18.4 5 Norte 21 Nordeste 0 -- -- 31
2019-04-12 14:00:00 18.1 8 Nordeste 26 Norte 0 -- -- 33
2019-04-12 13:00:00 17.5 10 Nordeste 27 Nordeste 0 -- -- 33
2019-04-12 12:00:00 17 4 Sudeste 12 Sudoeste 0 -- -- 42
2019-04-12 11:00:00 14.4 6 Sur 9 Sudoeste 0 -- -- 55
2019-04-12 10:00:00 10.7 2 Sudoeste 4 Sudoeste 0 -- -- 63
2019-04-12 09:00:00 7.9 3 Noroeste 6 Sudoeste 0 -- -- 74
2019-04-12 08:00:00 8.1 4 Oeste 22 Norte 0 -- -- 63
2019-04-12 07:00:00 10.2 12 Norte 18 Norte 0 -- -- 50
2019-04-12 06:00:00 9.9 10 Norte 13 Norte 0 -- -- 52
2019-04-12 05:00:00 10.7 10 Norte 17 Norte 0 -- -- 49
2019-04-12 04:00:00 10.6 9 Norte 18 Norte 0 -- -- 50
2019-04-12 03:00:00 11.2 14 Norte 29 Norte 0 -- -- 50
2019-04-12 02:00:00 11.5 20 Norte 28 Norte 0 -- -- 50
2019-04-12 01:00:00 11.8 20 Norte 31 Norte 0 -- -- 50
2019-04-12 00:00:00 11.8 17 Norte 26 Norte 0 -- -- 51
2019-04-11 23:00:00 12.6 18 Norte 23 Norte 0 -- -- 48
2019-04-11 22:00:00 12.8 12 Norte 17 Norte 0 -- -- 48
2019-04-11 21:00:00 13.9 8 Norte 22 Norte 0 -- -- 44
2019-04-11 20:00:00 17.1 9 Norte 19 Norte 0 -- -- 39
2019-04-11 19:00:00 16.5 9 Norte 17 Norte 0 -- -- 41
2019-04-11 18:00:00 17.6 13 Nordeste 26 Noroeste 0 -- -- 40
2019-04-11 17:00:00 18.3 9 Noroeste 23 Norte 0 -- -- 36
2019-04-11 16:00:00 17.1 13 Norte 28 Nordeste 0 -- -- 38
2019-04-11 15:00:00 17.5 11 Noroeste 26 Noroeste 0 -- -- 39
2019-04-11 14:00:00 16.5 13 Norte 27 Norte 0 -- -- 43
2019-04-11 13:00:00 15.7 11 Norte 25 Norte 0 -- -- 48
2019-04-11 12:00:00 14.4 14 Norte 33 Norte 0 -- -- 56
2019-04-11 11:00:00 12.6 24 Norte 37 Norte 0 -- -- 60
2019-04-11 10:00:00 11.2 12 Noroeste 25 Noroeste 0 -- -- 66
2019-04-11 09:00:00 9.2 5 Oeste 33 Norte 0 -- -- 75
2019-04-11 08:00:00 8.3 22 Norte 41 Norte 0 -- -- 79
2019-04-11 07:00:00 8.9 24 Norte 35 Norte 0 -- -- 76
2019-04-11 06:00:00 8.9 13 Norte 29 Norte 0 -- -- 74
2019-04-11 05:00:00 9.3 23 Norte 36 Noroeste 0 -- -- 72
2019-04-11 04:00:00 8.9 24 Norte 33 Norte 0 -- -- 74
2019-04-11 03:00:00 9.2 12 Norte 27 Norte 0 -- -- 72
2019-04-11 02:00:00 9.4 19 Norte 31 Norte 0 -- -- 72
2019-04-11 01:00:00 8.7 16 Norte 27 Norte 0 -- -- 76
2019-04-11 00:00:00 9.3 13 Noroeste 20 Norte 0 -- -- 72
2019-04-10 23:00:00 9.8 13 Norte 40 Nordeste 0 -- -- 73
2019-04-10 22:00:00 10.9 17 Norte 47 Norte 0 -- -- 61
2019-04-10 21:00:00 11.9 34 Nordeste 51 Norte 0 -- -- 56
2019-04-10 20:00:00 16.4 13 Noroeste 43 Oeste 0 -- -- 42
2019-04-10 19:00:00 17.6 27 Oeste 49 Oeste 0 -- -- 38
2019-04-10 18:00:00 17.7 27 Oeste 50 Oeste 0 -- -- 42
2019-04-10 17:00:00 17.1 31 Oeste 51 Oeste 0 -- -- 43
2019-04-10 16:00:00 16.8 27 Oeste 53 Oeste 0 -- -- 43
2019-04-10 15:00:00 15.5 24 Oeste 50 Oeste 0 -- -- 52
2019-04-10 14:00:00 15.5 30 Oeste 45 Oeste 0 -- -- 51
2019-04-10 13:00:00 14.4 27 Oeste 42 Oeste 0 -- -- 57
2019-04-10 12:00:00 13.7 23 Oeste 37 Oeste 0 -- -- 56
2019-04-10 11:00:00 12.2 26 Oeste 39 Oeste 0 -- -- 61
2019-04-10 10:00:00 10.7 24 Oeste 36 Oeste 0 -- -- 64
2019-04-10 09:00:00 8.9 19 Oeste 28 Oeste 0 -- -- 80
2019-04-10 08:00:00 8 22 Oeste 33 Oeste 0 -- -- 84
2019-04-10 07:00:00 7.8 14 Oeste 22 Oeste 0 -- -- 87
2019-04-10 06:00:00 7.3 14 Sudoeste 29 Oeste 0 -- -- 90
2019-04-10 05:00:00 7.8 20 Oeste 28 Oeste 0 -- -- 86
2019-04-10 04:00:00 7.7 12 Sudoeste 28 Oeste 0 -- -- 86
2019-04-10 03:00:00 7.7 15 Oeste 22 Oeste 0 -- -- 86
2019-04-10 02:00:00 7.2 8 Sudoeste 17 Oeste 0 -- -- 83
2019-04-10 01:00:00 9.2 12 Oeste 31 Oeste 0 -- -- 73
2019-04-10 00:00:00 9.4 14 Oeste 30 Oeste 0 -- -- 73
2019-04-09 23:00:00 10.4 21 Oeste 45 Oeste 0 -- -- 69
2019-04-09 22:00:00 11.3 21 Oeste 33 Oeste 0 -- -- 66
2019-04-09 21:00:00 12 18 Oeste 45 Oeste 0 -- -- 63
2019-04-09 20:00:00 13.6 27 Oeste 50 Oeste 0 -- -- 57
2019-04-09 19:00:00 15.4 28 Oeste 44 Oeste 0 -- -- 52
2019-04-09 18:00:00 16.6 28 Oeste 44 Oeste 0 -- -- 50
2019-04-09 17:00:00 16.4 19 Oeste 46 Oeste 0 -- -- 54
2019-04-09 16:00:00 14.9 30 Oeste 51 Oeste 0 -- -- 57
2019-04-09 15:00:00 14 20 Oeste 48 Oeste 0.2 -- -- 67
2019-04-09 14:00:00 12.1 19 Oeste 40 Oeste 0 -- -- 79
2019-04-09 13:00:00 12.6 26 Oeste 45 Sudoeste 0 -- -- 74
2019-04-09 12:00:00 11.7 24 Oeste 41 Sudoeste 0.2 -- -- 82
2019-04-09 11:00:00 9.9 24 Oeste 34 Oeste 0 -- -- 86
2019-04-09 10:00:00 8.6 10 Sudoeste 22 Sudoeste 1.8 -- -- 96
2019-04-09 09:00:00 8 10 Sudoeste 18 Sudoeste 1.6 -- -- 95
2019-04-09 08:00:00 7.8 6 Sudoeste 15 Oeste 0 -- -- 94
2019-04-09 07:00:00 7.6 5 Sudoeste 11 Oeste 0 -- -- 92
2019-04-09 06:00:00 7.4 2 Sudeste 5 Este 0 -- -- 91
2019-04-09 05:00:00 7.1 3 Este 7 Sudoeste 0 -- -- 90
2019-04-09 04:00:00 7.1 6 Sudoeste 10 Oeste 0 -- -- 90
2019-04-09 03:00:00 7 3 Sudoeste 12 Sudoeste 0 -- -- 87
2019-04-09 02:00:00 7.1 4 Oeste 12 Oeste 0 -- -- 87
2019-04-09 01:00:00 7.7 6 Sudoeste 10 Oeste 0 -- -- 85
2019-04-09 00:00:00 8.4 4 Sudoeste 19 Oeste 0 -- -- 81
2019-04-08 23:00:00 9 10 Oeste 18 Oeste 0 -- -- 79
2019-04-08 22:00:00 10.2 13 Oeste 32 Sudoeste 0 -- -- 71
2019-04-08 21:00:00 11.8 16 Oeste 36 Oeste 0 -- -- 63
2019-04-08 20:00:00 13 24 Oeste 41 Oeste 0 -- -- 64
2019-04-08 19:00:00 13.9 23 Oeste 44 Oeste 0 -- -- 53
2019-04-08 18:00:00 14.9 26 Oeste 46 Oeste 0 -- -- 52
2019-04-08 17:00:00 16.1 21 Oeste 37 Oeste 0 -- -- 47
2019-04-08 16:00:00 17 20 Sudoeste 37 Sudoeste 0 -- -- 43
2019-04-08 15:00:00 15.6 16 Oeste 40 Oeste 0 -- -- 49
2019-04-08 14:00:00 14.8 20 Oeste 33 Sudoeste 0 -- -- 62
2019-04-08 13:00:00 13.4 18 Oeste 30 Oeste 0 -- -- 71
2019-04-08 12:00:00 13.8 18 Oeste 28 Oeste 0 -- -- 73
2019-04-08 11:00:00 11.5 15 Oeste 29 Oeste 0 -- -- 83
2019-04-08 10:00:00 10.6 10 Sudoeste 16 Sudoeste 0 -- -- 95
2019-04-08 09:00:00 9.9 3 Sudoeste 7 Oeste 0 -- -- 96
2019-04-08 08:00:00 9.8 5 Sudoeste 18 Oeste 0 -- -- 96
2019-04-08 07:00:00 10.3 13 Oeste 21 Oeste 0 -- -- 96
2019-04-08 06:00:00 10.7 15 Oeste 24 Oeste 1 -- -- 97
2019-04-08 05:00:00 10.9 13 Sudoeste 22 Sudoeste 3 -- -- 96
2019-04-08 04:00:00 11 13 Sudoeste 29 Sudoeste 1 -- -- 95
2019-04-08 03:00:00 11.2 11 Sudoeste 19 Sur 0.4 -- -- 96
2019-04-08 02:00:00 11.3 8 Sudoeste 12 Sudoeste 0 -- -- 95
2019-04-08 01:00:00 11.2 2 Este 5 Sudeste 0 -- -- 94
2019-04-08 00:00:00 11.2 0 Calma 6 Sur 0.2 -- -- 94
2019-04-07 23:00:00 11.2 5 Sur 6 Sudeste 0 -- -- 95
2019-04-07 22:00:00 11.4 0 Calma 14 Sudoeste 0.2 -- -- 96
2019-04-07 21:00:00 11.5 4 Sudoeste 11 Sudoeste 0.2 -- -- 96
2019-04-07 20:00:00 11.2 10 Sudoeste 15 Sur 0.6 -- -- 95
2019-04-07 19:00:00 10.8 3 Sur 13 Sur 0.4 -- -- 95
2019-04-07 18:00:00 10.6 9 Sur 19 Sudoeste 1 -- -- 94
2019-04-07 17:00:00 10.8 12 Sur 25 Sudoeste 0.2 -- -- 92
2019-04-07 16:00:00 11.7 14 Sudoeste 24 Sudoeste 0 -- -- 80
2019-04-07 15:00:00 13 15 Sudoeste 29 Sudoeste 0 -- -- 68
2019-04-07 14:00:00 12.3 14 Sudoeste 26 Sudoeste 0.2 -- -- 75
2019-04-07 13:00:00 11.4 10 Sudoeste 21 Sudoeste 0 -- -- 73
2019-04-07 12:00:00 10.6 11 Sudoeste 18 Oeste 0 -- -- 78
2019-04-07 11:00:00 9.7 10 Sudoeste 21 Oeste 0 -- -- 83
2019-04-07 10:00:00 8.7 15 Oeste 22 Oeste 0 -- -- 87
2019-04-07 09:00:00 8 10 Sudoeste 15 Sudoeste 0 -- -- 91
2019-04-07 08:00:00 7.3 10 Oeste 19 Oeste 0 -- -- 91
2019-04-07 07:00:00 7.4 12 Oeste 18 Oeste 0 -- -- 90
2019-04-07 06:00:00 7.3 8 Oeste 21 Oeste 0 -- -- 91
2019-04-07 05:00:00 7.4 10 Oeste 20 Oeste 0 -- -- 91
2019-04-07 04:00:00 7.5 10 Oeste 27 Oeste 0 -- -- 92
2019-04-07 03:00:00 7.5 18 Oeste 25 Oeste 0 -- -- 92
2019-04-07 02:00:00 7.3 14 Oeste 25 Oeste 0 -- -- 91
2019-04-07 01:00:00 7.5 15 Oeste 24 Sudoeste 0 -- -- 89
2019-04-07 00:00:00 7.2 10 Sudoeste 17 Oeste 0 -- -- 90
2019-04-06 23:00:00 7 10 Oeste 22 Oeste 0 -- -- 86
2019-04-06 22:00:00 6.8 15 Oeste 25 Oeste 0 -- -- 81
2019-04-06 21:00:00 7.7 14 Oeste 41 Oeste 0 -- -- 78
2019-04-06 20:00:00 10.1 29 Oeste 46 Oeste 0 -- -- 63
2019-04-06 19:00:00 11.1 28 Oeste 48 Oeste 0 -- -- 60
2019-04-06 18:00:00 10 27 Oeste 55 Oeste 0 -- -- 69
2019-04-06 17:00:00 10.4 23 Oeste 44 Oeste 0 -- -- 69
2019-04-06 16:00:00 8.2 18 Sudoeste 50 Oeste 0 -- -- 79
2019-04-06 15:00:00 10.2 28 Oeste 49 Oeste 0 -- -- 67
2019-04-06 14:00:00 10.3 27 Oeste 47 Oeste 0.2 -- -- 71
2019-04-06 13:00:00 8 17 Oeste 40 Sudoeste 0 -- -- 80
2019-04-06 12:00:00 6.9 26 Oeste 41 Oeste 0.2 -- -- 87
2019-04-06 11:00:00 7.7 25 Sudoeste 39 Oeste 0 -- -- 82
2019-04-06 10:00:00 6.8 22 Oeste 31 Sudoeste 0 -- -- 89
2019-04-06 09:00:00 5.9 21 Oeste 36 Oeste 0.6 -- -- 90
2019-04-06 08:00:00 6 12 Sudoeste 24 Sudoeste 0 -- -- 91
2019-04-06 07:00:00 6 11 Sudoeste 20 Sudoeste 0.2 -- -- 94
2019-04-06 06:00:00 5.4 7 Oeste 19 Oeste 0 -- -- 93
2019-04-06 05:00:00 4.9 13 Oeste 22 Oeste 0 -- -- 92
2019-04-06 04:00:00 5.3 10 Oeste 15 Oeste 0 -- -- 92
2019-04-06 03:00:00 4.7 6 Sudoeste 10 Oeste 0 -- -- 93
2019-04-06 02:00:00 4.4 4 Sudoeste 14 Oeste 0 -- -- 91
2019-04-06 01:00:00 4.5 8 Sudoeste 13 Sudoeste 0 -- -- 91
2019-04-06 00:00:00 5.2 9 Oeste 23 Oeste 0 -- -- 87
2019-04-05 23:00:00 5.5 13 Oeste 24 Oeste 0 -- -- 85
2019-04-05 22:00:00 6.5 20 Oeste 37 Oeste 0 -- -- 78
2019-04-05 21:00:00 7.6 21 Oeste 33 Oeste 0 -- -- 82
2019-04-05 20:00:00 8.2 25 Oeste 38 Oeste 0 -- -- 73
2019-04-05 19:00:00 8.6 29 Oeste 51 Oeste 0 -- -- 72
2019-04-05 18:00:00 9 35 Oeste 59 Oeste 0 -- -- 67
2019-04-05 17:00:00 12 23 Sudoeste 52 Sudoeste 0 -- -- 50
2019-04-05 16:00:00 12.6 26 Oeste 45 Oeste 0.2 -- -- 48
2019-04-05 15:00:00 10.6 23 Oeste 45 Sudoeste 0 -- -- 62
2019-04-05 14:00:00 10 26 Oeste 40 Oeste 0.2 -- -- 70
2019-04-05 13:00:00 6.9 26 Oeste 39 Oeste 0 -- -- 82
2019-04-05 12:00:00 7.6 14 Oeste 36 Oeste 0 -- -- 84
2019-04-05 11:00:00 5.8 14 Oeste 40 Oeste 0.2 -- -- 89
2019-04-05 10:00:00 6.4 22 Oeste 33 Sudoeste 0.8 -- -- 92
2019-04-05 09:00:00 6.7 6 Sudoeste 13 Oeste 0 -- -- 95
2019-04-05 08:00:00 6.3 6 Sudoeste 15 Sudoeste 0 -- -- 94
2019-04-05 07:00:00 6.9 8 Sudoeste 17 Sudoeste 0 -- -- 94
2019-04-05 06:00:00 6.6 11 Sudoeste 25 Oeste 5 -- -- 93
2019-04-05 05:00:00 7.5 13 Sudoeste 23 Sur 0 -- -- 95
2019-04-05 04:00:00 7.1 12 Sudoeste 29 Sudoeste 0.2 -- -- 95
2019-04-05 03:00:00 6.9 12 Sudoeste 18 Sudoeste 0.4 -- -- 94
2019-04-05 02:00:00 6.8 9 Sur 24 Sudoeste 2.4 -- -- 94
2019-04-05 01:00:00 7 8 Sur 12 Sur 0.2 -- -- 91
2019-04-05 00:00:00 7 8 Sudoeste 21 Oeste 0 -- -- 88
2019-04-04 23:00:00 7.2 17 Oeste 28 Oeste 0.4 -- -- 84
2019-04-04 22:00:00 7.9 14 Oeste 50 Oeste 0.4 -- -- 79
2019-04-04 21:00:00 11.2 32 Oeste 54 Oeste 0 -- -- 51
2019-04-04 20:00:00 13.5 26 Oeste 37 Sudoeste 0 -- -- 39
2019-04-04 19:00:00 14.6 23 Sudoeste 35 Oeste 0 -- -- 26
2019-04-04 18:00:00 15.7 21 Sudoeste 34 Sudoeste 0 -- -- 27
2019-04-04 17:00:00 16.6 16 Sudoeste 43 Sudoeste 0 -- -- 24
2019-04-04 16:00:00 16.4 14 Sudoeste 30 Sudoeste 0 -- -- 25
2019-04-04 15:00:00 16.2 12 Sudoeste 22 Oeste 0 -- -- 28
2019-04-04 14:00:00 13.9 6 Este 19 Norte 0 -- -- 33
2019-04-04 13:00:00 12.6 6 Norte 20 Norte 0 -- -- 38
2019-04-04 12:00:00 10.9 15 Norte 33 Norte 0 -- -- 43
2019-04-04 11:00:00 8.6 23 Norte 47 Norte 0 -- -- 48
2019-04-04 10:00:00 6.6 24 Norte 49 Norte 0 -- -- 53
2019-04-04 09:00:00 5.3 37 Norte 49 Norte 0 -- -- 55
2019-04-04 08:00:00 5.2 34 Norte 43 Norte 0 -- -- 53
2019-04-04 07:00:00 4.9 24 Norte 31 Norte 0 -- -- 57
2019-04-04 06:00:00 3.4 8 Norte 10 Norte 0 -- -- 64
2019-04-04 05:00:00 3.7 5 Nordeste 9 Norte 0 -- -- 63
2019-04-04 04:00:00 5.5 4 Nordeste 13 Noroeste 0 -- -- 56
2019-04-04 03:00:00 6.6 7 Noroeste 39 Norte 0 -- -- 52
2019-04-04 02:00:00 7.7 19 Noroeste 42 Noroeste 0 -- -- 49
2019-04-04 01:00:00 9 10 Noroeste 40 Noroeste 0 -- -- 47
2019-04-04 00:00:00 9.9 20 Noroeste 44 Noroeste 0 -- -- 42
2019-04-03 23:00:00 10.1 11 Noroeste 27 Norte 0 -- -- 40
2019-04-03 22:00:00 10.7 10 Norte 31 Norte 0 -- -- 38
2019-04-03 21:00:00 12 16 Norte 39 Noroeste 0 -- -- 37
2019-04-03 20:00:00 13.9 20 Norte 41 Noroeste 0 -- -- 34
2019-04-03 19:00:00 15.1 19 Norte 42 Norte 0 -- -- 32
2019-04-03 18:00:00 15.3 26 Norte 44 Noroeste 0 -- -- 31
2019-04-03 17:00:00 15.7 26 Noroeste 46 Noroeste 0 -- -- 31
2019-04-03 16:00:00 16.4 22 Noroeste 45 Noroeste 0 -- -- 29
2019-04-03 15:00:00 15.5 24 Norte 41 Norte 0 -- -- 35
2019-04-03 14:00:00 15 21 Norte 41 Norte 0 -- -- 39
2019-04-03 13:00:00 14.5 18 Noroeste 36 Noroeste 0 -- -- 44
2019-04-03 12:00:00 13.1 19 Norte 38 Norte 0 -- -- 50
2019-04-03 11:00:00 11.7 23 Norte 42 Norte 0 -- -- 60
2019-04-03 10:00:00 10.2 27 Norte 40 Norte 0 -- -- 64
2019-04-03 09:00:00 7 3 Oeste 11 Oeste 0 -- -- 78
2019-04-03 08:00:00 6.5 3 Sudoeste 11 Sudoeste 0 -- -- 78
2019-04-03 07:00:00 6.7 6 Sudoeste 15 Sudoeste 0 -- -- 80
2019-04-03 06:00:00 7.3 6 Sudoeste 22 Sudoeste 0 -- -- 78
2019-04-03 05:00:00 8 14 Sudoeste 21 Sudoeste 0 -- -- 78
2019-04-03 04:00:00 9.1 5 Oeste 13 Sudoeste 0 -- -- 75
2019-04-03 03:00:00 10.1 3 Oeste 18 Sudoeste 0 -- -- 72
2019-04-03 02:00:00 11.2 9 Sudoeste 17 Sudoeste 0 -- -- 68
2019-04-03 01:00:00 13.5 6 Norte 29 Noroeste 0 -- -- 57
2019-04-03 00:00:00 15.1 23 Noroeste 34 Noroeste 0 -- -- 50
2019-04-02 23:00:00 15.3 20 Oeste 28 Oeste 0 -- -- 55
2019-04-02 22:00:00 15.9 13 Oeste 24 Oeste 0 -- -- 54
2019-04-02 21:00:00 18.4 17 Oeste 28 Oeste 0 -- -- 43
2019-04-02 20:00:00 19.4 12 Oeste 29 Sudoeste 0 -- -- 39
2019-04-02 19:00:00 19.7 15 Oeste 29 Oeste 0 -- -- 39
2019-04-02 18:00:00 21.9 17 Oeste 28 Oeste 0 -- -- 36
2019-04-02 17:00:00 22.2 17 Sudoeste 27 Sudoeste 0 -- -- 36
2019-04-02 16:00:00 21.8 14 Oeste 24 Sudoeste 0 -- -- 38
2019-04-02 15:00:00 19.3 9 Sudoeste 18 Sudoeste 0 -- -- 43
2019-04-02 14:00:00 19.7 11 Oeste 29 Oeste 0 -- -- 47
2019-04-02 13:00:00 18 8 Sudoeste 18 Sudoeste 0 -- -- 56
2019-04-02 12:00:00 15.9 9 Sur 15 Sur 0 -- -- 67
2019-04-02 11:00:00 12.8 6 Sudoeste 12 Sudoeste 0 -- -- 79
2019-04-02 10:00:00 10.3 5 Sudoeste 8 Sudoeste 0 -- -- 87
2019-04-02 09:00:00 8.2 0 Calma 5 Nordeste 0 -- -- 92
2019-04-02 08:00:00 7.4 4 Nordeste 6 Nordeste 0 -- -- 93
2019-04-02 07:00:00 7.9 7 Nordeste 9 Nordeste 0 -- -- 92
2019-04-02 06:00:00 8.4 3 Este 6 Este 0 -- -- 86
2019-04-02 05:00:00 9.3 0 Calma 7 Oeste 0 -- -- 85
2019-04-02 04:00:00 10 3 Sur 15 Oeste 0 -- -- 82
2019-04-02 03:00:00 10.7 4 Oeste 17 Oeste 0 -- -- 79
2019-04-02 02:00:00 11 9 Sudoeste 13 Oeste 0 -- -- 81
2019-04-02 01:00:00 12.3 7 Oeste 11 Sudoeste 0 -- -- 78
2019-04-02 00:00:00 12.9 4 Sudeste 10 Norte 0 -- -- 68
2019-04-01 23:00:00 13.3 8 Oeste 12 Sur 0 -- -- 71
2019-04-01 22:00:00 14.1 4 Noroeste 5 Norte 0 -- -- 66
2019-04-01 21:00:00 14.9 3 Noroeste 10 Oeste 0 -- -- 63
2019-04-01 20:00:00 16.6 6 Oeste 13 Oeste 0 -- -- 57
2019-04-01 19:00:00 16.9 4 Sur 15 Sudeste 0 -- -- 54
2019-04-01 18:00:00 16.8 8 Este 14 Sudeste 0 -- -- 55
2019-04-01 17:00:00 16.3 5 Oeste 14 Oeste 0 -- -- 66
2019-04-01 16:00:00 15.2 4 Este 13 Nordeste 0 -- -- 70
2019-04-01 15:00:00 13.6 4 Oeste 15 Oeste 0 -- -- 77
2019-04-01 14:00:00 14 12 Oeste 16 Oeste 0 -- -- 76
2019-04-01 13:00:00 14.2 8 Sudeste 24 Este 0 -- -- 68
2019-04-01 12:00:00 13.1 16 Este 25 Este 0 -- -- 71
2019-04-01 11:00:00 12.1 15 Este 26 Nordeste 0 -- -- 76
2019-04-01 10:00:00 11.6 16 Este 25 Este 0 -- -- 78
2019-04-01 09:00:00 10.4 14 Nordeste 23 Este 0 -- -- 82
2019-04-01 08:00:00 10.2 15 Este 23 Este 0 -- -- 82
2019-04-01 07:00:00 10.1 15 Este 23 Este 0 -- -- 81
2019-04-01 06:00:00 10.6 12 Este 26 Este 0 -- -- 78
2019-04-01 05:00:00 11.2 14 Este 29 Este 0 -- -- 75
2019-04-01 04:00:00 10.8 17 Nordeste 27 Nordeste 0 -- -- 74
2019-04-01 03:00:00 10.7 13 Este 26 Este 0 -- -- 74
2019-04-01 02:00:00 11.3 15 Este 24 Este 0 -- -- 71
2019-04-01 01:00:00 12 15 Este 30 Este 0 -- -- 67
2019-04-01 00:00:00 13.2 17 Este 32 Este 0 -- -- 61
2019-03-31 23:00:00 13.6 23 Este 33 Este 0 -- -- 62
2019-03-31 22:00:00 13.9 19 Este 30 Nordeste 0 -- -- 61
2019-03-31 21:00:00 15.3 16 Este 27 Este 0 -- -- 55
2019-03-31 20:00:00 17.1 16 Este 33 Este 0 -- -- 48
2019-03-31 19:00:00 19.1 19 Este 35 Este 0 -- -- 41
2019-03-31 18:00:00 19.7 20 Este 33 Este 0 -- -- 38
2019-03-31 17:00:00 20.3 19 Este 33 Este 0 -- -- 38
2019-03-31 16:00:00 19.8 19 Este 33 Este 0 -- -- 38
2019-03-31 15:00:00 19.1 19 Este 31 Este 0 -- -- 41
2019-03-31 14:00:00 17.6 25 Este 40 Este 0 -- -- 44
2019-03-31 13:00:00 15.3 20 Este 35 Nordeste 0 -- -- 52
2019-03-31 12:00:00 13.7 21 Este 37 Este 0 -- -- 55
2019-03-31 11:00:00 12.6 22 Este 45 Este 0 -- -- 59
2019-03-31 10:00:00 12.2 23 Este 38 Este 0 -- -- 61
2019-03-31 09:00:00 11.7 27 Este 39 Este 0 -- -- 62
2019-03-31 08:00:00 11.7 21 Este 35 Este 0 -- -- 61
2019-03-31 07:00:00 12.6 18 Este 32 Este 0 -- -- 56
2019-03-31 06:00:00 13.3 15 Nordeste 25 Este 0 -- -- 52
2019-03-31 05:00:00 12.9 11 Nordeste 17 Nordeste 0 -- -- 55
2019-03-31 03:00:00 13.7 5 Norte 9 Nordeste 0 -- -- 49
2019-03-31 01:00:00 13.9 7 Nordeste 12 Noroeste 0 -- -- 46
2019-03-31 00:00:00 13 5 Sudoeste 27 Sur 0 -- -- 45
2019-03-30 23:00:00 15.6 14 Nordeste 21 Nordeste 0 -- -- 37
2019-03-30 22:00:00 15.8 16 Nordeste 22 Nordeste 0 -- -- 36
2019-03-30 21:00:00 16.3 11 Nordeste 21 Norte 0 -- -- 33
2019-03-30 20:00:00 16.9 11 Nordeste 15 Nordeste 0 -- -- 37
2019-03-30 19:00:00 18.2 10 Este 18 Nordeste 0 -- -- 35
2019-03-30 18:00:00 19 10 Este 19 Este 0 -- -- 33
2019-03-30 17:00:00 19.2 12 Este 28 Este 0 -- -- 33
2019-03-30 16:00:00 19.8 17 Este 29 Este 0 -- -- 28
2019-03-30 15:00:00 19.5 19 Este 31 Este 0 -- -- 28
2019-03-30 14:00:00 18.6 18 Este 32 Este 0 -- -- 37
2019-03-30 13:00:00 17.1 20 Este 35 Este 0 -- -- 39
2019-03-30 12:00:00 15.4 24 Este 42 Este 0 -- -- 43
2019-03-30 11:00:00 13.9 27 Este 46 Este 0 -- -- 46
2019-03-30 10:00:00 12.2 30 Este 46 Este 0 -- -- 48
2019-03-30 09:00:00 10.9 25 Este 46 Este 0 -- -- 54
2019-03-30 08:00:00 9.1 28 Este 45 Este 0 -- -- 59
2019-03-30 07:00:00 8.5 24 Este 36 Este 0 -- -- 61
2019-03-30 06:00:00 9.2 20 Este 37 Este 0 -- -- 58
2019-03-30 05:00:00 10.1 21 Este 37 Este 0 -- -- 53
2019-03-30 04:00:00 11.1 26 Este 40 Este 0 -- -- 48
2019-03-30 03:00:00 11.9 21 Este 33 Este 0 -- -- 43
2019-03-30 02:00:00 11.8 14 Nordeste 19 Este 0 -- -- 42
2019-03-30 01:00:00 13.4 12 Nordeste 16 Nordeste 0 -- -- 34
2019-03-30 00:00:00 14.3 10 Nordeste 15 Nordeste 0 -- -- 32
2019-03-29 23:00:00 14.3 10 Nordeste 15 Nordeste 0 -- -- 32
2019-03-29 22:00:00 14.4 8 Nordeste 13 Nordeste 0 -- -- 31
2019-03-29 21:00:00 15 3 Este 12 Nordeste 0 -- -- 32
2019-03-29 20:00:00 15.9 7 Nordeste 11 Este 0 -- -- 32
2019-03-29 19:00:00 18.7 5 Este 20 Este 0 -- -- 27
2019-03-29 18:00:00 19.4 9 Sudeste 29 Este 0 -- -- 25
2019-03-29 17:00:00 19.5 12 Sudeste 31 Este 0 -- -- 25
2019-03-29 16:00:00 19.4 19 Este 33 Sudeste 0 -- -- 24
2019-03-29 15:00:00 19.1 18 Este 34 Este 0 -- -- 24
2019-03-29 14:00:00 18.4 19 Este 36 Este 0 -- -- 27
2019-03-29 13:00:00 17.3 16 Este 37 Este 0 -- -- 31
2019-03-29 12:00:00 16.1 22 Este 41 Este 0 -- -- 30
2019-03-29 11:00:00 14.9 21 Este 45 Este 0 -- -- 33
2019-03-29 10:00:00 13.7 22 Este 35 Este 0 -- -- 35
2019-03-29 09:00:00 11.5 23 Este 36 Este 0 -- -- 37
2019-03-29 08:00:00 9.2 15 Nordeste 25 Nordeste 0 -- -- 43
2019-03-29 07:00:00 8.5 15 Nordeste 21 Este 0 -- -- 44
2019-03-29 06:00:00 9.2 0 Calma 13 Nordeste 0 -- -- 41
2019-03-29 05:00:00 10.5 9 Nordeste 19 Nordeste 0 -- -- 36
2019-03-29 04:00:00 10.6 13 Nordeste 19 Este 0 -- -- 36
2019-03-29 03:00:00 12.3 11 Nordeste 17 Este 0 -- -- 32
2019-03-29 02:00:00 12.8 13 Nordeste 21 Nordeste 0 -- -- 31
2019-03-29 01:00:00 12 10 Nordeste 22 Nordeste 0 -- -- 35
2019-03-29 00:00:00 14.1 16 Nordeste 22 Nordeste 0 -- -- 29
2019-03-28 23:00:00 15 13 Nordeste 20 Nordeste 0 -- -- 26
2019-03-28 22:00:00 15.8 13 Nordeste 17 Nordeste 0 -- -- 26
2019-03-28 21:00:00 15.3 12 Nordeste 17 Nordeste 0 -- -- 28
2019-03-28 20:00:00 16.2 13 Nordeste 18 Este 0 -- -- 29
2019-03-28 19:00:00 19.3 12 Este 23 Nordeste 0 -- -- 23
2019-03-28 18:00:00 20.4 13 Nordeste 26 Este 0 -- -- 22
2019-03-28 17:00:00 20.9 14 Este 29 Este 0 -- -- 21
2019-03-28 16:00:00 21.2 13 Este 33 Nordeste 0 -- -- 21
2019-03-28 15:00:00 20.9 16 Este 31 Este 0 -- -- 21
2019-03-28 14:00:00 19.7 15 Este 31 Sudeste 0 -- -- 23
2019-03-28 13:00:00 18.9 18 Este 38 Sudeste 0 -- -- 26
2019-03-28 12:00:00 17.1 14 Este 32 Este 0 -- -- 31
2019-03-28 11:00:00 15.1 23 Este 34 Este 0 -- -- 36
2019-03-28 10:00:00 13.5 21 Este 39 Este 0 -- -- 36
2019-03-28 09:00:00 11 19 Este 33 Este 0 -- -- 41
2019-03-28 08:00:00 8.6 12 Nordeste 18 Nordeste 0 -- -- 46
2019-03-28 07:00:00 8.4 6 Nordeste 15 Nordeste 0 -- -- 46
2019-03-28 06:00:00 10.5 11 Nordeste 19 Nordeste 0 -- -- 40
2019-03-28 05:00:00 9.1 10 Nordeste 19 Nordeste 0 -- -- 50
2019-03-28 04:00:00 11.5 5 Nordeste 13 Nordeste 0 -- -- 41
2019-03-28 03:00:00 12.4 6 Norte 14 Nordeste 0 -- -- 37
2019-03-28 02:00:00 13.3 10 Nordeste 16 Nordeste 0 -- -- 37
2019-03-28 01:00:00 11.7 6 Nordeste 17 Norte 0 -- -- 38
2019-03-28 00:00:00 15.3 13 Nordeste 17 Nordeste 0 -- -- 26
2019-03-27 23:00:00 15.5 13 Nordeste 18 Nordeste 0 -- -- 26
2019-03-27 22:00:00 14.9 13 Nordeste 19 Nordeste 0 -- -- 31
2019-03-27 21:00:00 15.4 14 Nordeste 19 Nordeste 0 -- -- 32
2019-03-27 20:00:00 15.4 12 Nordeste 16 Nordeste 0 -- -- 33
2019-03-27 19:00:00 18.3 12 Este 25 Este 0 -- -- 28
2019-03-27 18:00:00 19.4 9 Este 23 Este 0 -- -- 27
2019-03-27 17:00:00 19.6 15 Este 27 Este 0 -- -- 27
2019-03-27 16:00:00 19.6 17 Este 33 Este 0 -- -- 28
2019-03-27 15:00:00 18.9 20 Este 36 Este 0 -- -- 29
2019-03-27 14:00:00 18.1 21 Este 37 Este 0 -- -- 31
2019-03-27 13:00:00 16.9 21 Este 40 Este 0 -- -- 35
2019-03-27 12:00:00 15.8 21 Este 46 Este 0 -- -- 38
2019-03-27 11:00:00 14.2 27 Este 48 Este 0 -- -- 42
2019-03-27 10:00:00 12 35 Este 54 Este 0 -- -- 48
2019-03-27 09:00:00 10.6 33 Este 57 Este 0 -- -- 52
2019-03-27 08:00:00 9.2 32 Este 60 Este 0 -- -- 59
2019-03-27 07:00:00 9.6 34 Este 58 Este 0 -- -- 58
2019-03-27 06:00:00 10.4 35 Este 54 Este 0 -- -- 54
2019-03-27 05:00:00 11.7 34 Este 57 Este 0 -- -- 48
2019-03-27 04:00:00 12.8 33 Este 53 Nordeste 0 -- -- 42
2019-03-27 03:00:00 13.7 27 Este 47 Este 0 -- -- 37
2019-03-27 02:00:00 14.7 26 Este 49 Este 0 -- -- 32
2019-03-27 01:00:00 15.7 24 Este 37 Nordeste 0 -- -- 29
2019-03-27 00:00:00 16.5 24 Nordeste 35 Este 0 -- -- 31
2019-03-26 23:00:00 17.5 21 Nordeste 32 Este 0 -- -- 29
2019-03-26 22:00:00 17.6 12 Nordeste 18 Nordeste 0 -- -- 29
2019-03-26 21:00:00 18.1 15 Nordeste 23 Nordeste 0 -- -- 30
2019-03-26 20:00:00 18.3 14 Nordeste 26 Este 0 -- -- 30
2019-03-26 19:00:00 20.6 16 Este 37 Este 0 -- -- 27
2019-03-26 18:00:00 21.6 26 Este 44 Este 0 -- -- 26
2019-03-26 17:00:00 21.8 30 Este 50 Este 0 -- -- 26
2019-03-26 16:00:00 21.7 31 Este 52 Este 0 -- -- 28
2019-03-26 15:00:00 20.9 31 Este 53 Este 0 -- -- 29
2019-03-26 14:00:00 19.5 29 Este 58 Este 0 -- -- 33
2019-03-26 13:00:00 18.1 35 Este 52 Este 0 -- -- 34
2019-03-26 12:00:00 16.6 31 Este 52 Nordeste 0 -- -- 35
2019-03-26 11:00:00 14.1 33 Nordeste 55 Nordeste 0 -- -- 38
2019-03-26 10:00:00 12.6 30 Nordeste 50 Nordeste 0 -- -- 40
2019-03-26 09:00:00 11.1 26 Nordeste 40 Nordeste 0 -- -- 43
2019-03-26 08:00:00 9.7 21 Nordeste 43 Este 0 -- -- 46
2019-03-26 07:00:00 10.1 28 Nordeste 50 Nordeste 0 -- -- 43
2019-03-26 06:00:00 11.3 26 Nordeste 49 Nordeste 0 -- -- 38
2019-03-26 05:00:00 12 23 Nordeste 45 Nordeste 0 -- -- 36
2019-03-26 04:00:00 11.6 21 Nordeste 36 Nordeste 0 -- -- 41
2019-03-26 03:00:00 12.3 23 Nordeste 39 Nordeste 0 -- -- 41
2019-03-26 02:00:00 12.7 21 Nordeste 41 Norte 0 -- -- 43
2019-03-26 01:00:00 13 29 Norte 43 Norte 0 -- -- 43
2019-03-26 00:00:00 14.2 22 Norte 44 Norte 0 -- -- 39
2019-03-25 23:00:00 15.2 35 Norte 47 Norte 0 -- -- 36
2019-03-25 22:00:00 16.1 27 Norte 42 Norte 0 -- -- 33
2019-03-25 21:00:00 17.3 26 Norte 40 Norte 0 -- -- 30
2019-03-25 20:00:00 18.3 17 Norte 30 Nordeste 0 -- -- 31
2019-03-25 19:00:00 21.2 18 Norte 30 Nordeste 0 -- -- 29
2019-03-25 18:00:00 22.7 10 Nordeste 24 Este 0 -- -- 28
2019-03-25 17:00:00 22.7 11 Este 31 Nordeste 0 -- -- 27
2019-03-25 16:00:00 22.4 16 Nordeste 26 Este 0 -- -- 26
2019-03-25 15:00:00 22.5 15 Nordeste 30 Este 0 -- -- 25
2019-03-25 14:00:00 22.1 18 Este 33 Este 0 -- -- 25
2019-03-25 13:00:00 20.9 21 Este 35 Este 0 -- -- 29
2019-03-25 12:00:00 19.9 22 Este 39 Este 0 -- -- 31
2019-03-25 11:00:00 17.9 28 Este 44 Este 0 -- -- 35
2019-03-25 10:00:00 16.7 27 Este 42 Este 0 -- -- 35
2019-03-25 09:00:00 15 24 Este 38 Este 0 -- -- 38
2019-03-25 08:00:00 12.9 18 Nordeste 32 Este 0 -- -- 43
2019-03-25 07:00:00 12.7 23 Este 35 Este 0 -- -- 42
2019-03-25 06:00:00 13.3 17 Nordeste 26 Nordeste 0 -- -- 43
2019-03-25 05:00:00 13 19 Nordeste 24 Este 0 -- -- 46
2019-03-25 04:00:00 9.4 7 Oeste 21 Norte 0 -- -- 68
2019-03-25 03:00:00 14.8 14 Nordeste 21 Nordeste 0 -- -- 40
2019-03-25 02:00:00 14.3 11 Nordeste 17 Este 0 -- -- 41
2019-03-25 01:00:00 15.5 13 Nordeste 17 Nordeste 0 -- -- 38
2019-03-25 00:00:00 15.8 12 Nordeste 16 Nordeste 0 -- -- 38
2019-03-24 23:00:00 15 12 Norte 19 Sudeste 0 -- -- 40
2019-03-24 22:00:00 18.3 14 Nordeste 20 Nordeste 0 -- -- 32
2019-03-24 21:00:00 17.7 14 Nordeste 18 Nordeste 0 -- -- 34
2019-03-24 20:00:00 18.4 13 Nordeste 20 Nordeste 0 -- -- 34
2019-03-24 19:00:00 20.2 16 Nordeste 28 Este 0 -- -- 32
2019-03-24 18:00:00 21.2 19 Este 30 Este 0 -- -- 30
2019-03-24 17:00:00 21.5 19 Este 38 Este 0 -- -- 30
2019-03-24 16:00:00 21.4 18 Este 37 Este 0 -- -- 31
2019-03-24 15:00:00 21 26 Este 46 Este 0 -- -- 31
2019-03-24 14:00:00 20.4 27 Este 52 Este 0 -- -- 34
2019-03-24 13:00:00 18.9 33 Este 56 Este 0 -- -- 38
2019-03-24 12:00:00 17.8 31 Este 55 Este 0 -- -- 39
2019-03-24 11:00:00 16.2 26 Este 40 Este 0 -- -- 45
2019-03-24 10:00:00 14.5 24 Este 41 Este 0 -- -- 53
2019-03-24 09:00:00 12.9 24 Este 39 Este 0 -- -- 57
2019-03-24 08:00:00 11.4 14 Nordeste 28 Nordeste 0 -- -- 62
2019-03-24 07:00:00 11.9 18 Este 31 Este 0 -- -- 58
2019-03-24 06:00:00 12.2 19 Nordeste 28 Nordeste 0 -- -- 57
2019-03-24 05:00:00 12.1 7 Este 30 Este 0 -- -- 57
2019-03-24 04:00:00 13 14 Nordeste 21 Nordeste 0 -- -- 55
2019-03-24 03:00:00 14.1 15 Nordeste 23 Nordeste 0 -- -- 50
2019-03-24 02:00:00 13.5 14 Nordeste 19 Nordeste 0 -- -- 52
2019-03-24 01:00:00 14.2 13 Nordeste 17 Nordeste 0 -- -- 49
2019-03-24 00:00:00 15 13 Nordeste 17 Nordeste 0 -- -- 46
2019-03-23 23:00:00 15.2 12 Este 17 Este 0 -- -- 45
2019-03-23 22:00:00 16.6 12 Este 18 Nordeste 0 -- -- 41
2019-03-23 21:00:00 17.7 10 Este 28 Este 0 -- -- 38
2019-03-23 20:00:00 18.7 19 Nordeste 28 Nordeste 0 -- -- 34
2019-03-23 19:00:00 19.5 17 Nordeste 33 Este 0 -- -- 32
2019-03-23 18:00:00 20.5 23 Este 36 Este 0 -- -- 31
2019-03-23 17:00:00 20.7 24 Este 46 Este 0 -- -- 33
2019-03-23 16:00:00 20.9 31 Este 48 Este 0 -- -- 30
2019-03-23 15:00:00 20.5 27 Este 48 Este 0 -- -- 33
2019-03-23 14:00:00 19.6 23 Este 44 Este 0 -- -- 37
2019-03-23 13:00:00 18.8 22 Este 37 Este 0 -- -- 40
2019-03-23 12:00:00 17.6 21 Este 35 Este 0 -- -- 44
2019-03-23 11:00:00 16.1 24 Este 38 Este 0 -- -- 47
2019-03-23 10:00:00 14.5 23 Este 37 Este 0 -- -- 49
2019-03-23 09:00:00 12.4 20 Este 31 Este 0 -- -- 54
2019-03-23 08:00:00 10.5 19 Nordeste 29 Nordeste 0 -- -- 58
2019-03-23 07:00:00 10.3 19 Nordeste 29 Nordeste 0 -- -- 57
2019-03-23 06:00:00 10.7 16 Nordeste 26 Nordeste 0 -- -- 55
2019-03-23 05:00:00 10.8 16 Nordeste 22 Nordeste 0 -- -- 52
2019-03-23 04:00:00 12 14 Nordeste 24 Nordeste 0 -- -- 45
2019-03-23 03:00:00 12.2 16 Nordeste 24 Nordeste 0 -- -- 43
2019-03-23 02:00:00 11.2 11 Nordeste 15 Nordeste 0 -- -- 46
2019-03-23 01:00:00 12.7 10 Nordeste 18 Nordeste 0 -- -- 43
2019-03-23 00:00:00 14.2 13 Nordeste 22 Nordeste 0 -- -- 37
2019-03-22 23:00:00 15.2 13 Nordeste 22 Nordeste 0 -- -- 30
2019-03-22 22:00:00 15 15 Nordeste 20 Nordeste 0 -- -- 32
2019-03-22 21:00:00 15.1 14 Nordeste 21 Nordeste 0 -- -- 34
2019-03-22 20:00:00 14.9 13 Nordeste 20 Nordeste 0 -- -- 37
2019-03-22 19:00:00 17.1 14 Este 28 Este 0 -- -- 34
2019-03-22 18:00:00 18.3 15 Este 32 Este 0 -- -- 30
2019-03-22 17:00:00 18.4 18 Este 31 Este 0 -- -- 30
2019-03-22 16:00:00 18.2 19 Este 32 Este 0 -- -- 32
2019-03-22 15:00:00 17.6 21 Este 35 Este 0 -- -- 32
2019-03-22 14:00:00 17.4 16 Este 30 Este 0 -- -- 33
2019-03-22 13:00:00 16 19 Este 31 Este 0 -- -- 35
2019-03-22 12:00:00 14.4 19 Este 34 Este 0 -- -- 39
2019-03-22 11:00:00 13 20 Este 36 Este 0 -- -- 42
2019-03-22 10:00:00 10.7 30 Este 44 Este 0 -- -- 43
2019-03-22 09:00:00 9.1 15 Este 25 Este 0 -- -- 50
2019-03-22 08:00:00 7.7 14 Nordeste 21 Este 0 -- -- 51
2019-03-22 07:00:00 7 14 Nordeste 19 Este 0 -- -- 53
2019-03-22 06:00:00 7 5 Nordeste 11 Nordeste 0 -- -- 52
2019-03-22 05:00:00 9.9 7 Nordeste 11 Nordeste 0 -- -- 40
2019-03-22 04:00:00 9.9 4 Norte 15 Norte 0 -- -- 41
2019-03-22 03:00:00 10.5 11 Nordeste 15 Nordeste 0 -- -- 40
2019-03-22 02:00:00 10.8 6 Nordeste 24 Nordeste 0 -- -- 40
2019-03-22 01:00:00 11.4 15 Nordeste 21 Nordeste 0 -- -- 39
2019-03-22 00:00:00 12.4 11 Nordeste 17 Nordeste 0 -- -- 36
2019-03-21 23:00:00 13.2 10 Nordeste 17 Nordeste 0 -- -- 37
2019-03-21 22:00:00 13 10 Nordeste 13 Nordeste 0 -- -- 36
2019-03-21 21:00:00 12.7 8 Norte 11 Norte 0 -- -- 39
2019-03-21 20:00:00 13.5 8 Nordeste 12 Este 0 -- -- 43
2019-03-21 19:00:00 16.1 8 Este 16 Este 0 -- -- 34
2019-03-21 18:00:00 17.1 9 Este 18 Sudeste 0 -- -- 31
2019-03-21 17:00:00 17.8 7 Este 21 Este 0 -- -- 29
2019-03-21 16:00:00 17.4 12 Este 23 Este 0 -- -- 31
2019-03-21 15:00:00 17.1 10 Nordeste 22 Este 0 -- -- 33
2019-03-21 14:00:00 16 12 Sudeste 22 Este 0 -- -- 37
2019-03-21 13:00:00 15.6 9 Sudeste 26 Sudeste 0 -- -- 40
2019-03-21 12:00:00 14.2 15 Este 40 Este 0 -- -- 43
2019-03-21 11:00:00 12.3 24 Este 50 Este 0 -- -- 45
2019-03-21 10:00:00 10.8 23 Este 44 Este 0 -- -- 48
2019-03-21 09:00:00 8.7 28 Este 40 Nordeste 0 -- -- 53
2019-03-21 08:00:00 6.7 23 Este 33 Este 0 -- -- 57
2019-03-21 07:00:00 7.4 13 Nordeste 31 Este 0 -- -- 51
2019-03-21 06:00:00 7.9 17 Nordeste 28 Nordeste 0 -- -- 49
2019-03-21 05:00:00 8.9 16 Nordeste 23 Este 0 -- -- 49
2019-03-21 04:00:00 7.4 6 Nordeste 16 Sudeste 0 -- -- 55
2019-03-21 03:00:00 8.9 5 Norte 20 Norte 0 -- -- 49
2019-03-21 02:00:00 10.8 14 Norte 23 Norte 0 -- -- 45
2019-03-21 01:00:00 11.1 15 Norte 22 Norte 0 -- -- 44
2019-03-21 00:00:00 11.5 13 Norte 17 Norte 0 -- -- 42
2019-03-20 23:00:00 12.1 10 Nordeste 13 Nordeste 0 -- -- 36
2019-03-20 22:00:00 11.9 8 Nordeste 12 Nordeste 0 -- -- 39
2019-03-20 21:00:00 12.6 9 Nordeste 13 Nordeste 0 -- -- 41
2019-03-20 20:00:00 12.2 8 Nordeste 14 Este 0 -- -- 48
2019-03-20 19:00:00 14.9 11 Este 20 Este 0 -- -- 41
2019-03-20 18:00:00 15.6 15 Este 26 Nordeste 0 -- -- 39
2019-03-20 17:00:00 15.7 13 Nordeste 31 Nordeste 0 -- -- 40
2019-03-20 16:00:00 15.5 12 Nordeste 26 Nordeste 0 -- -- 39
2019-03-20 15:00:00 15.2 19 Este 29 Nordeste 0 -- -- 39
2019-03-20 14:00:00 14.2 17 Nordeste 31 Este 0 -- -- 41
2019-03-20 13:00:00 13.9 17 Este 34 Este 0 -- -- 43
2019-03-20 12:00:00 12.5 22 Este 40 Este 0 -- -- 45
2019-03-20 11:00:00 11.4 22 Este 40 Este 0 -- -- 47
2019-03-20 10:00:00 10.1 25 Este 40 Este 0 -- -- 49
2019-03-20 09:00:00 9 19 Nordeste 30 Este 0 -- -- 54
2019-03-20 08:00:00 7.4 19 Nordeste 29 Nordeste 0 -- -- 58
2019-03-20 07:00:00 7.9 19 Nordeste 33 Nordeste 0 -- -- 55
2019-03-20 06:00:00 9 19 Nordeste 27 Nordeste 0 -- -- 51
2019-03-20 05:00:00 9.6 14 Nordeste 23 Norte 0 -- -- 49
2019-03-20 04:00:00 10 16 Norte 31 Norte 0 -- -- 48
2019-03-20 03:00:00 10.1 20 Norte 27 Norte 0 -- -- 50
2019-03-20 02:00:00 11.5 12 Nordeste 20 Nordeste 0 -- -- 46
2019-03-20 01:00:00 11 10 Nordeste 14 Nordeste 0 -- -- 48
2019-03-20 00:00:00 11.9 9 Norte 21 Norte 0 -- -- 46
2019-03-19 23:00:00 12.2 12 Norte 33 Norte 0 -- -- 44
2019-03-19 22:00:00 12.8 21 Norte 31 Norte 0 -- -- 42
2019-03-19 21:00:00 13 17 Norte 32 Norte 0 -- -- 43
2019-03-19 20:00:00 14.5 18 Norte 32 Norte 0 -- -- 39
2019-03-19 19:00:00 16.3 21 Norte 40 Norte 0 -- -- 36
2019-03-19 18:00:00 17.6 19 Norte 36 Norte 0 -- -- 36
2019-03-19 17:00:00 18.1 18 Norte 30 Norte 0 -- -- 34
2019-03-19 16:00:00 17.4 8 Sudeste 24 Este 0 -- -- 38
2019-03-19 15:00:00 17 11 Este 24 Nordeste 0 -- -- 38
2019-03-19 14:00:00 16 10 Nordeste 27 Este 0 -- -- 39
2019-03-19 13:00:00 15.6 12 Este 26 Este 0 -- -- 36
2019-03-19 12:00:00 14.4 18 Este 32 Este 0 -- -- 40
2019-03-19 11:00:00 13.3 19 Este 30 Este 0 -- -- 41
2019-03-19 10:00:00 12.6 17 Este 31 Nordeste 0 -- -- 42
2019-03-19 09:00:00 10.5 18 Nordeste 29 Nordeste 0 -- -- 44
2019-03-19 08:00:00 8.5 18 Norte 32 Norte 0 -- -- 49
2019-03-19 07:00:00 9.1 18 Norte 27 Norte 0 -- -- 46
2019-03-19 06:00:00 10.5 17 Nordeste 26 Nordeste 0 -- -- 42
2019-03-19 05:00:00 10.1 17 Norte 26 Norte 0 -- -- 46
2019-03-19 04:00:00 10.4 11 Norte 26 Norte 0 -- -- 44
2019-03-19 03:00:00 10.6 18 Norte 32 Norte 0 -- -- 44
2019-03-19 02:00:00 10.9 22 Norte 37 Norte 0 -- -- 43
2019-03-19 01:00:00 10.8 24 Norte 39 Norte 0 -- -- 44
2019-03-19 00:00:00 11.3 23 Norte 39 Norte 0 -- -- 43